createdAt,value
2018-12-29T00:03:06.348Z,4.99
2018-12-29T00:05:34.902Z,4.93
2018-12-29T00:08:03.459Z,4.95
2018-12-29T00:10:32.406Z,4.95
2018-12-29T00:13:01.056Z,4.90
2018-12-29T00:15:29.526Z,4.86
2018-12-29T00:17:58.230Z,4.85
2018-12-29T00:20:26.856Z,4.83
2018-12-29T00:22:55.482Z,4.85
2018-12-29T00:25:24.315Z,4.81
2018-12-29T00:27:52.861Z,4.79
2018-12-29T00:30:21.476Z,4.77
2018-12-29T00:32:50.385Z,4.69
2018-12-29T00:35:18.881Z,4.69
2018-12-29T00:37:47.362Z,4.68
2018-12-29T00:40:16.238Z,4.69
2018-12-29T00:42:44.889Z,4.74
2018-12-29T00:45:13.434Z,4.82
2018-12-29T00:47:42.593Z,4.74
2018-12-29T00:50:11.201Z,4.82
2018-12-29T00:52:39.825Z,4.83
2018-12-29T00:55:08.383Z,4.81
2018-12-29T00:57:37.002Z,4.81
2018-12-29T01:00:07.238Z,4.87
2018-12-29T01:02:35.809Z,4.85
2018-12-29T01:05:04.887Z,4.86
2018-12-29T01:07:33.706Z,4.88
2018-12-29T01:10:02.199Z,4.85
2018-12-29T01:12:30.665Z,4.83
2018-12-29T01:14:59.312Z,4.80
2018-12-29T01:17:27.923Z,4.82
2018-12-29T01:19:56.594Z,4.74
2018-12-29T01:22:25.428Z,4.64
2018-12-29T01:24:54.044Z,4.66
2018-12-29T01:27:22.661Z,4.65
2018-12-29T01:29:51.462Z,4.59
2018-12-29T01:32:20.023Z,4.61
2018-12-29T01:34:48.647Z,4.59
2018-12-29T01:37:17.335Z,4.51
2018-12-29T01:39:45.954Z,4.51
2018-12-29T01:42:14.576Z,4.51
2018-12-29T01:44:43.480Z,4.46
2018-12-29T01:47:12.042Z,4.46
2018-12-29T01:49:40.661Z,4.45
2018-12-29T01:52:09.630Z,4.43
2018-12-29T01:54:38.180Z,4.43
2018-12-29T01:57:06.775Z,4.49
2018-12-29T01:59:35.434Z,4.48
2018-12-29T02:02:04.697Z,4.45
2018-12-29T02:04:33.192Z,4.47
2018-12-29T02:07:01.961Z,4.50
2018-12-29T02:09:30.574Z,4.51
2018-12-29T02:11:59.211Z,4.50
2018-12-29T02:14:27.917Z,4.61
2018-12-29T02:16:56.571Z,4.63
2018-12-29T02:19:25.121Z,4.58
2018-12-29T02:21:53.651Z,4.58
2018-12-29T02:24:22.282Z,4.57
2018-12-29T02:26:50.903Z,4.60
2018-12-29T02:29:19.653Z,4.61
2018-12-29T02:31:48.145Z,4.63
2018-12-29T02:34:16.758Z,4.58
2018-12-29T02:36:45.671Z,4.57
2018-12-29T02:39:14.172Z,4.61
2018-12-29T02:41:42.730Z,4.59
2018-12-29T02:44:11.370Z,4.67
2018-12-29T02:46:39.990Z,4.62
2018-12-29T02:49:08.477Z,4.64
2018-12-29T02:51:37.175Z,4.62
2018-12-29T02:54:05.799Z,4.59
2018-12-29T02:56:34.430Z,4.59
2018-12-29T02:59:03.034Z,4.56
2018-12-29T03:01:31.530Z,4.53
2018-12-29T03:04:00.147Z,4.52
2018-12-29T03:06:29.184Z,4.52
2018-12-29T03:08:57.665Z,4.47
2018-12-29T03:11:26.153Z,4.30
2018-12-29T03:13:55.126Z,4.33
2018-12-29T03:16:23.743Z,4.28
2018-12-29T03:18:52.292Z,4.34
2018-12-29T03:21:20.809Z,4.24
2018-12-29T03:23:49.419Z,4.33
2018-12-29T03:26:18.048Z,4.37
2018-12-29T03:28:46.601Z,4.25
2018-12-29T03:31:15.087Z,4.23
2018-12-29T03:33:44.003Z,4.27
2018-12-29T03:36:12.562Z,4.24
2018-12-29T03:38:41.183Z,4.24
2018-12-29T03:41:10.057Z,4.21
2018-12-29T03:43:38.617Z,4.15
2018-12-29T03:46:07.249Z,4.09
2018-12-29T03:48:36.221Z,4.10
2018-12-29T03:51:04.939Z,4.20
2018-12-29T03:53:33.598Z,4.15
2018-12-29T03:56:02.350Z,4.05
2018-12-29T03:58:31.015Z,4.02
2018-12-29T04:00:59.704Z,4.00
2018-12-29T04:03:28.341Z,4.01
2018-12-29T04:05:56.891Z,4.08
2018-12-29T04:08:25.547Z,4.17
2018-12-29T04:10:54.488Z,4.11
2018-12-29T04:13:23.031Z,4.15
2018-12-29T04:15:57.900Z,4.21
2018-12-29T04:18:22.065Z,4.22
2018-12-29T04:20:50.558Z,4.28
2018-12-29T04:23:19.174Z,4.29
2018-12-29T04:25:47.824Z,4.27
2018-12-29T04:28:16.370Z,4.26
2018-12-29T04:30:44.914Z,4.22
2018-12-29T04:33:13.598Z,4.27
2018-12-29T04:35:42.223Z,4.18
2018-12-29T04:38:10.699Z,4.13
2018-12-29T04:40:39.518Z,4.10
2018-12-29T04:43:08.142Z,4.15
2018-12-29T04:45:36.761Z,4.10
2018-12-29T04:48:05.479Z,4.17
2018-12-29T04:50:34.132Z,4.18
2018-12-29T04:53:02.741Z,4.20
2018-12-29T04:55:31.639Z,4.20
2018-12-29T04:58:00.255Z,4.25
2018-12-29T05:00:28.985Z,4.20
2018-12-29T05:02:57.795Z,4.17
2018-12-29T05:05:26.271Z,4.18
2018-12-29T05:07:54.919Z,4.19
2018-12-29T05:10:23.753Z,4.18
2018-12-29T05:12:55.273Z,4.20
2018-12-29T05:15:23.762Z,4.20
2018-12-29T05:17:52.769Z,4.21
2018-12-29T05:20:21.469Z,4.22
2018-12-29T05:22:50.017Z,4.21
2018-12-29T05:25:18.942Z,4.19
2018-12-29T05:27:47.684Z,4.16
2018-12-29T05:30:16.290Z,4.20
2018-12-29T05:32:44.988Z,4.27
2018-12-29T05:35:15.234Z,4.24
2018-12-29T05:37:43.907Z,4.30
2018-12-29T05:40:12.788Z,4.41
2018-12-29T05:42:41.407Z,4.35
2018-12-29T05:45:10.014Z,4.30
2018-12-29T05:47:38.844Z,4.35
2018-12-29T05:50:07.454Z,4.34
2018-12-29T05:52:36.073Z,4.32
2018-12-29T05:55:05.000Z,4.35
2018-12-29T05:57:33.486Z,4.34
2018-12-29T06:00:02.021Z,4.38
2018-12-29T06:02:30.914Z,4.38
2018-12-29T06:04:59.550Z,4.39
2018-12-29T06:07:28.032Z,4.41
2018-12-29T06:09:56.898Z,4.36
2018-12-29T06:12:25.515Z,4.36
2018-12-29T06:14:53.996Z,4.35
2018-12-29T06:19:57.383Z,4.28
2018-12-29T06:22:25.866Z,4.27
2018-12-29T06:24:54.355Z,4.30
2018-12-29T06:27:23.339Z,4.33
2018-12-29T06:29:51.973Z,4.26
2018-12-29T06:32:20.455Z,4.23
2018-12-29T06:34:59.623Z,4.31
2018-12-29T06:37:19.630Z,4.22
2018-12-29T06:39:48.264Z,4.19
2018-12-29T06:47:25.508Z,4.10
2018-12-29T06:49:54.138Z,4.07
2018-12-29T06:52:22.770Z,4.09
2018-12-29T06:54:51.473Z,4.10
2018-12-29T06:57:20.117Z,4.07
2018-12-29T06:59:48.617Z,4.10
2018-12-29T07:02:17.139Z,4.18
2018-12-29T07:04:45.755Z,4.18
2018-12-29T07:07:14.383Z,4.21
2018-12-29T07:09:42.909Z,4.21
2018-12-29T07:12:11.408Z,4.30
2018-12-29T07:14:40.076Z,4.37
2018-12-29T07:17:08.732Z,4.38
2018-12-29T07:19:37.226Z,4.41
2018-12-29T07:22:05.702Z,4.42
2018-12-29T07:24:34.356Z,4.44
2018-12-29T07:27:02.992Z,4.49
2018-12-29T07:29:38.083Z,4.60
2018-12-29T07:32:01.689Z,4.61
2018-12-29T07:34:30.392Z,4.69
2018-12-29T07:36:58.904Z,4.79
2018-12-29T07:39:27.538Z,4.80
2018-12-29T07:41:56.158Z,4.81
2018-12-29T07:44:24.961Z,4.82
2018-12-29T07:46:53.447Z,5.00
2018-12-29T07:49:22.094Z,5.04
2018-12-29T07:51:50.886Z,5.20
2018-12-29T07:54:19.363Z,5.23
2018-12-29T07:56:47.861Z,5.16
2018-12-29T07:59:16.762Z,5.11
2018-12-29T08:01:45.398Z,5.20
2018-12-29T08:04:13.914Z,5.30
2018-12-29T08:06:42.406Z,5.39
2018-12-29T08:09:11.024Z,5.46
2018-12-29T08:11:39.643Z,5.48
2018-12-29T08:14:08.468Z,5.36
2018-12-29T08:16:37.019Z,5.42
2018-12-29T08:19:07.159Z,5.40
2018-12-29T08:21:35.814Z,5.48
2018-12-29T08:24:04.384Z,5.53
2018-12-29T08:26:32.878Z,5.40
2018-12-29T08:29:01.823Z,5.31
2018-12-29T08:31:30.444Z,5.31
2018-12-29T08:33:58.973Z,5.28
2018-12-29T08:36:27.762Z,5.18
2018-12-29T08:38:56.384Z,5.10
2018-12-29T08:41:24.998Z,5.02
2018-12-29T08:43:53.819Z,5.08
2018-12-29T08:46:22.313Z,5.18
2018-12-29T08:48:50.947Z,5.20
2018-12-29T08:51:19.600Z,5.31
2018-12-29T08:53:48.090Z,5.33
2018-12-29T08:56:16.720Z,5.30
2018-12-29T08:58:45.420Z,5.01
2018-12-29T09:01:13.915Z,5.02
2018-12-29T09:03:42.546Z,4.84
2018-12-29T09:06:11.224Z,4.94
2018-12-29T09:08:39.803Z,4.88
2018-12-29T09:11:08.280Z,4.88
2018-12-29T09:13:37.228Z,4.95
2018-12-29T09:16:05.876Z,4.96
2018-12-29T09:18:34.427Z,4.85
2018-12-29T09:21:02.912Z,4.93
2018-12-29T09:23:31.857Z,4.95
2018-12-29T09:26:00.473Z,5.02
2018-12-29T09:28:29.031Z,4.81
2018-12-29T09:30:57.647Z,4.83
2018-12-29T09:33:26.281Z,4.71
2018-12-29T09:35:56.312Z,4.76
2018-12-29T09:38:25.435Z,4.71
2018-12-29T09:40:54.130Z,4.82
2018-12-29T09:43:22.687Z,4.79
2018-12-29T09:45:51.210Z,4.89
2018-12-29T09:48:19.819Z,4.85
2018-12-29T09:50:48.448Z,4.77
2018-12-29T09:53:17.315Z,4.87
2018-12-29T09:55:45.801Z,4.76
2018-12-29T09:58:14.418Z,4.78
2018-12-29T10:00:43.070Z,4.80
2018-12-29T10:03:11.549Z,4.84
2018-12-29T10:05:40.043Z,4.78
2018-12-29T10:08:08.700Z,4.90
2018-12-29T10:10:37.331Z,4.91
2018-12-29T10:13:05.884Z,5.04
2018-12-29T10:15:34.588Z,5.00
2018-12-29T10:18:03.134Z,4.99
2018-12-29T10:20:31.718Z,5.06
2018-12-29T10:23:00.373Z,5.17
2018-12-29T10:25:29.070Z,5.31
2018-12-29T10:27:57.550Z,5.26
2018-12-29T10:30:26.133Z,5.17
2018-12-29T10:32:54.765Z,5.05
2018-12-29T10:35:23.400Z,5.11
2018-12-29T10:37:51.916Z,5.12
2018-12-29T10:40:20.463Z,5.06
2018-12-29T10:42:49.094Z,5.15
2018-12-29T10:45:17.976Z,5.17
2018-12-29T10:47:46.471Z,5.33
2018-12-29T10:50:15.027Z,5.22
2018-12-29T10:52:43.736Z,5.14
2018-12-29T10:55:12.556Z,5.15
2018-12-29T10:57:41.187Z,5.27
2018-12-29T11:00:10.443Z,5.16
2018-12-29T11:02:38.992Z,5.14
2018-12-29T11:05:08.420Z,5.07
2018-12-29T11:07:37.262Z,5.02
2018-12-29T11:10:07.297Z,4.99
2018-12-29T11:12:35.775Z,4.93
2018-12-29T11:15:04.869Z,4.76
2018-12-29T11:17:33.564Z,4.84
2018-12-29T11:20:02.302Z,4.74
2018-12-29T11:22:31.114Z,4.70
2018-12-29T11:24:59.745Z,4.62
2018-12-29T11:27:28.369Z,4.66
2018-12-29T11:29:57.381Z,4.61
2018-12-29T11:32:25.870Z,4.51
2018-12-29T11:34:54.487Z,4.67
2018-12-29T11:37:23.243Z,4.57
2018-12-29T11:39:51.722Z,4.55
2018-12-29T11:42:20.373Z,4.58
2018-12-29T11:44:49.279Z,4.57
2018-12-29T11:47:17.781Z,4.57
2018-12-29T11:49:46.418Z,4.64
2018-12-29T11:52:21.147Z,4.71
2018-12-29T11:54:49.773Z,4.85
2018-12-29T11:57:18.268Z,4.99
2018-12-29T11:59:46.796Z,4.83
2018-12-29T12:02:15.481Z,4.76
2018-12-29T12:04:44.440Z,4.74
2018-12-29T12:07:13.395Z,4.79
2018-12-29T12:09:41.938Z,4.83
2018-12-29T12:12:10.569Z,4.74
2018-12-29T12:14:39.456Z,4.78
2018-12-29T12:17:08.363Z,4.68
2018-12-29T12:19:36.993Z,4.75
2018-12-29T12:22:05.570Z,4.80
2018-12-29T12:24:34.065Z,4.78
2018-12-29T12:27:02.745Z,4.62
2018-12-29T12:29:31.659Z,4.61
2018-12-29T12:32:00.141Z,4.73
2018-12-29T12:34:28.627Z,4.61
2018-12-29T12:36:57.633Z,4.65
2018-12-29T12:39:26.273Z,4.56
2018-12-29T12:41:54.842Z,4.51
2018-12-29T12:44:23.421Z,4.54
2018-12-29T12:46:52.042Z,4.54
2018-12-29T12:49:20.654Z,4.43
2018-12-29T12:51:49.414Z,4.45
2018-12-29T12:54:18.045Z,4.50
2018-12-29T12:56:46.600Z,4.47
2018-12-29T12:59:15.791Z,4.47
2018-12-29T13:01:44.701Z,4.44
2018-12-29T13:04:13.320Z,4.41
2018-12-29T13:06:41.839Z,4.34
2018-12-29T13:09:10.690Z,4.32
2018-12-29T13:11:39.306Z,4.38
2018-12-29T13:14:07.977Z,4.26
2018-12-29T13:16:36.456Z,4.24
2018-12-29T13:19:05.024Z,4.21
2018-12-29T13:21:34.047Z,4.20
2018-12-29T13:24:02.663Z,4.21
2018-12-29T13:26:31.139Z,4.24
2018-12-29T13:28:59.901Z,4.29
2018-12-29T13:31:28.531Z,4.26
2018-12-29T13:33:57.525Z,4.32
2018-12-29T13:36:26.482Z,4.34
2018-12-29T13:38:55.113Z,4.36
2018-12-29T13:41:23.745Z,4.28
2018-12-29T13:43:52.629Z,4.25
2018-12-29T13:46:21.391Z,4.24
2018-12-29T13:48:49.876Z,4.25
2018-12-29T13:51:18.787Z,4.14
2018-12-29T13:53:47.405Z,4.20
2018-12-29T13:56:16.035Z,4.18
2018-12-29T13:58:45.849Z,4.18
2018-12-29T14:01:14.449Z,4.28
2018-12-29T14:03:43.111Z,4.26
2018-12-29T14:06:11.611Z,4.07
2018-12-29T14:08:40.237Z,4.07
2018-12-29T14:11:08.791Z,4.02
2018-12-29T14:13:37.444Z,4.07
2018-12-29T14:16:06.061Z,3.98
2018-12-29T14:18:34.630Z,3.96
2018-12-29T14:21:03.284Z,3.90
2018-12-29T14:23:31.847Z,3.84
2018-12-29T14:26:00.462Z,3.95
2018-12-29T14:28:29.380Z,3.85
2018-12-29T14:30:57.944Z,3.80
2018-12-29T14:33:26.579Z,3.86
2018-12-29T14:35:55.247Z,3.90
2018-12-29T14:38:23.803Z,3.82
2018-12-29T14:40:52.422Z,3.74
2018-12-29T14:43:21.003Z,3.67
2018-12-29T14:45:49.632Z,3.68
2018-12-29T14:48:18.183Z,3.70
2018-12-29T14:50:46.783Z,3.67
2018-12-29T14:53:15.335Z,3.65
2018-12-29T14:55:44.106Z,3.61
2018-12-29T14:58:12.956Z,3.59
2018-12-29T15:00:41.574Z,3.58
2018-12-29T15:03:10.516Z,3.54
2018-12-29T15:05:39.081Z,3.51
2018-12-29T15:08:07.702Z,3.40
2018-12-29T15:10:36.740Z,3.43
2018-12-29T15:13:08.720Z,3.35
2018-12-29T15:15:37.286Z,3.25
2018-12-29T15:18:06.682Z,3.26
2018-12-29T15:20:35.766Z,3.33
2018-12-29T15:23:04.692Z,3.26
2018-12-29T15:25:33.541Z,3.23
2018-12-29T15:28:02.203Z,3.31
2018-12-29T15:30:30.825Z,3.37
2018-12-29T15:32:59.591Z,3.29
2018-12-29T15:35:28.212Z,3.29
2018-12-29T15:37:57.141Z,3.32
2018-12-29T15:40:25.951Z,3.39
2018-12-29T15:42:54.516Z,3.31
2018-12-29T15:45:23.513Z,3.22
2018-12-29T15:47:52.423Z,3.20
2018-12-29T15:50:21.073Z,3.27
2018-12-29T15:52:50.009Z,3.25
2018-12-29T15:55:19.001Z,3.16
2018-12-29T15:57:47.558Z,3.11
2018-12-29T16:00:16.110Z,3.21
2018-12-29T16:02:44.959Z,3.14
2018-12-29T16:05:13.596Z,3.14
2018-12-29T16:07:42.543Z,3.25
2018-12-29T16:10:11.409Z,3.20
2018-12-29T16:12:40.043Z,3.23
2018-12-29T16:15:09.144Z,3.14
2018-12-29T16:17:38.099Z,3.12
2018-12-29T16:20:06.708Z,3.10
2018-12-29T16:22:35.267Z,3.13
2018-12-29T16:25:03.805Z,3.08
2018-12-29T16:27:32.368Z,3.10
2018-12-29T16:30:01.042Z,3.08
2018-12-29T16:32:29.665Z,3.05
2018-12-29T16:34:58.154Z,3.08
2018-12-29T16:37:27.013Z,3.04
2018-12-29T16:39:55.701Z,3.03
2018-12-29T16:42:24.640Z,3.07
2018-12-29T16:44:53.431Z,3.13
2018-12-29T16:47:21.989Z,3.10
2018-12-29T16:49:50.619Z,3.04
2018-12-29T16:52:19.686Z,3.05
2018-12-29T16:54:48.348Z,3.00
2018-12-29T16:57:16.906Z,2.95
2018-12-29T16:59:45.739Z,2.99
2018-12-29T17:02:14.674Z,3.03
2018-12-29T17:04:43.298Z,3.00
2018-12-29T17:10:34.307Z,2.89
2018-12-29T17:13:03.246Z,2.92
2018-12-29T17:15:31.873Z,2.88
2018-12-29T17:18:00.974Z,2.95
2018-12-29T17:20:29.695Z,3.00
2018-12-29T17:22:58.315Z,2.97
2018-12-29T17:25:26.950Z,2.95
2018-12-29T17:27:55.685Z,2.96
2018-12-29T17:30:24.287Z,2.97
2018-12-29T17:32:52.846Z,3.00
2018-12-29T17:35:21.555Z,3.01
2018-12-29T17:37:50.148Z,3.03
2018-12-29T17:40:18.856Z,3.04
2018-12-29T17:42:47.777Z,3.06
2018-12-29T17:45:52.345Z,3.07
2018-12-29T17:48:20.940Z,3.10
2018-12-29T17:50:49.562Z,3.08
2018-12-29T17:53:18.306Z,3.05
2018-12-29T17:55:46.822Z,3.10
2018-12-29T17:58:15.433Z,3.04
2018-12-29T18:00:44.087Z,3.03
2018-12-29T18:03:13.595Z,3.00
2018-12-29T18:05:42.242Z,3.06
2018-12-29T18:08:10.877Z,2.98
2018-12-29T18:10:39.470Z,3.03
2018-12-29T18:13:08.037Z,2.99
2018-12-29T18:15:36.655Z,3.09
2018-12-29T18:18:05.600Z,3.01
2018-12-29T18:20:34.459Z,2.95
2018-12-29T18:23:03.015Z,2.95
2018-12-29T18:25:32.074Z,2.90
2018-12-29T18:28:00.640Z,2.98
2018-12-29T18:30:29.508Z,2.96
2018-12-29T18:32:58.441Z,2.88
2018-12-29T18:35:27.066Z,2.92
2018-12-29T18:37:55.654Z,2.94
2018-12-29T18:40:24.405Z,2.93
2018-12-29T18:42:52.956Z,2.88
2018-12-29T18:45:23.052Z,2.93
2018-12-29T18:47:51.868Z,2.86
2018-12-29T18:50:20.353Z,2.93
2018-12-29T18:52:48.976Z,2.85
2018-12-29T18:55:17.648Z,2.88
2018-12-29T18:57:46.449Z,2.93
2018-12-29T19:00:15.308Z,2.95
2018-12-29T19:02:43.873Z,2.85
2018-12-29T19:05:12.498Z,2.84
2018-12-29T19:07:41.356Z,2.81
2018-12-29T19:10:10.164Z,2.93
2018-12-29T19:12:38.725Z,2.84
2018-12-29T19:15:07.685Z,2.84
2018-12-29T19:17:36.692Z,2.87
2018-12-29T19:20:07.695Z,2.90
2018-12-29T19:22:36.657Z,2.84
2018-12-29T19:25:05.478Z,2.83
2018-12-29T19:27:34.046Z,2.81
2018-12-29T19:30:02.955Z,2.83
2018-12-29T19:32:31.534Z,2.85
2018-12-29T19:35:00.393Z,2.92
2018-12-29T19:37:29.596Z,2.87
2018-12-29T19:39:58.413Z,2.84
2018-12-29T19:42:27.047Z,2.97
2018-12-29T19:44:55.943Z,2.97
2018-12-29T19:47:24.585Z,3.02
2018-12-29T19:49:53.899Z,3.03
2018-12-29T19:52:22.666Z,3.10
2018-12-29T19:54:51.284Z,3.00
2018-12-29T19:57:20.122Z,2.88
2018-12-29T19:59:49.071Z,2.91
2018-12-29T20:02:17.911Z,2.91
2018-12-29T20:04:46.858Z,2.96
2018-12-29T20:07:21.531Z,2.94
2018-12-29T20:09:50.074Z,2.96
2018-12-29T20:12:18.628Z,2.81
2018-12-29T20:14:47.531Z,2.76
2018-12-29T20:17:16.105Z,2.80
2018-12-29T20:19:44.581Z,2.85
2018-12-29T20:22:13.391Z,2.82
2018-12-29T20:24:42.027Z,2.82
2018-12-29T20:27:10.592Z,2.83
2018-12-29T20:29:39.342Z,2.76
2018-12-29T20:32:07.907Z,2.86
2018-12-29T20:34:36.559Z,2.89
2018-12-29T20:37:05.491Z,2.79
2018-12-29T20:42:26.114Z,2.80
2018-12-29T20:44:54.743Z,2.76
2018-12-29T20:47:23.320Z,2.80
2018-12-29T20:49:52.163Z,2.75
2018-12-29T20:52:20.787Z,2.85
2018-12-29T20:54:49.342Z,2.75
2018-12-29T20:57:18.132Z,2.76
2018-12-29T20:59:46.765Z,2.81
2018-12-29T21:02:15.377Z,2.79
2018-12-29T21:04:44.158Z,2.82
2018-12-29T21:07:12.705Z,2.80
2018-12-29T21:09:41.714Z,2.80
2018-12-29T21:12:10.637Z,2.82
2018-12-29T21:14:39.139Z,2.77
2018-12-29T21:17:07.686Z,2.78
2018-12-29T21:19:36.615Z,2.74
2018-12-29T21:22:05.235Z,2.94
2018-12-29T21:24:33.843Z,2.81
2018-12-29T21:27:02.744Z,2.76
2018-12-29T21:29:31.300Z,2.93
2018-12-29T21:31:59.878Z,2.96
2018-12-29T21:34:28.926Z,2.93
2018-12-29T21:36:57.472Z,2.87
2018-12-29T21:39:25.959Z,2.86
2018-12-29T21:41:54.561Z,2.95
2018-12-29T21:44:23.205Z,2.95
2018-12-29T21:46:51.751Z,2.88
2018-12-29T21:49:20.611Z,2.79
2018-12-29T21:51:49.447Z,2.74
2018-12-29T21:54:18.078Z,2.79
2018-12-29T21:56:46.666Z,2.84
2018-12-29T21:59:15.312Z,2.80
2018-12-29T22:01:43.874Z,2.83
2018-12-29T22:04:13.236Z,2.81
2018-12-29T22:06:41.801Z,2.89
2018-12-29T22:09:10.360Z,2.81
2018-12-29T22:11:39.307Z,2.89
2018-12-29T22:14:07.790Z,2.82
2018-12-29T22:16:36.362Z,2.76
2018-12-29T22:19:05.376Z,2.81
2018-12-29T22:21:33.939Z,2.86
2018-12-29T22:24:02.725Z,2.87
2018-12-29T22:26:31.290Z,2.91
2018-12-29T22:28:59.925Z,2.97
2018-12-29T22:31:28.482Z,2.92
2018-12-29T22:33:56.963Z,3.03
2018-12-29T22:36:27.134Z,2.94
2018-12-29T22:38:55.833Z,2.90
2018-12-29T22:41:24.752Z,2.92
2018-12-29T22:43:53.306Z,3.05
2018-12-29T22:46:21.865Z,2.84
2018-12-29T22:48:50.418Z,2.85
2018-12-29T22:51:19.043Z,2.77
2018-12-29T22:53:47.848Z,2.81
2018-12-29T22:56:16.393Z,2.78
2018-12-29T22:58:45.263Z,2.78
2018-12-29T23:01:13.816Z,2.72
2018-12-29T23:03:42.436Z,2.82
2018-12-29T23:06:11.309Z,2.94
2018-12-29T23:08:39.853Z,2.81
2018-12-29T23:11:08.790Z,2.77
2018-12-29T23:13:37.662Z,2.88
2018-12-29T23:16:06.403Z,2.84
2018-12-29T23:18:34.897Z,2.79
2018-12-29T23:21:03.642Z,2.79
2018-12-29T23:23:32.284Z,2.78
2018-12-29T23:26:01.244Z,2.79
2018-12-29T23:28:30.181Z,2.79
2018-12-29T23:30:58.916Z,2.78
2018-12-29T23:33:27.404Z,2.79
2018-12-29T23:35:55.997Z,2.82
2018-12-29T23:38:24.625Z,2.72
2018-12-29T23:40:53.251Z,2.68
2018-12-29T23:43:21.776Z,2.73
2018-12-29T23:45:50.334Z,2.79
2018-12-29T23:48:18.960Z,2.93
2018-12-29T23:50:47.561Z,2.85
2018-12-29T23:53:16.035Z,2.76
2018-12-29T23:55:45.030Z,2.83
2018-12-29T23:58:13.888Z,2.86
